Time;durP1;ratioP1;P1;durP2;ratioP2;P2;SDS_P1;SDS_P2;PMS_P1;PMS_P2;Temp;Humidity;BMP_temperature;BMP_pressure;BME280_temperature;BME280_humidity;BME280_pressure;Samples;Min_cycle;Max_cycle;Signal;HPM_P1;HPM_P2
2023/05/11 00:00:02;;;;;;;7.18;5.50;;;;;;;10.49;97.25;100963.88;5062624;28;20017;-75
2023/05/11 00:02:27;;;;;;;9.55;6.85;;;;;;;10.79;96.88;101024.56;5062259;28;20097;-75
2023/05/11 00:04:54;;;;;;;12.27;6.60;;;;;;;10.65;98.14;101023.94;5061042;28;20489;-75
2023/05/11 00:07:20;;;;;;;13.52;7.55;;;;;;;10.63;97.52;101015.25;5061087;28;20025;-76
2023/05/11 00:09:45;;;;;;;13.27;8.18;;;;;;;10.61;97.48;101006.56;5062857;28;20089;-75
2023/05/11 00:12:12;;;;;;;15.30;7.55;;;;;;;10.62;97.05;101014.38;5072413;28;20099;-76
2023/05/11 00:14:37;;;;;;;12.93;7.78;;;;;;;10.55;97.37;101002.00;5072169;28;20036;-75
2023/05/11 00:17:03;;;;;;;13.38;7.20;;;;;;;10.67;97.36;101028.38;5072641;28;20053;-75
2023/05/11 00:19:30;;;;;;;10.85;6.63;;;;;;;10.65;97.35;101021.38;5072591;28;20031;-76
2023/05/11 00:21:57;;;;;;;11.35;7.18;;;;;;;10.08;97.03;100910.34;5072345;28;20025;-76
2023/05/11 00:24:22;;;;;;;12.10;6.63;;;;;;;10.58;96.78;101001.25;5072520;28;20051;-76
2023/05/11 00:26:48;;;;;;;11.63;6.60;;;;;;;10.67;97.28;101028.38;5072140;28;20162;-75
2023/05/11 00:29:13;;;;;;;11.75;6.70;;;;;;;10.65;97.13;101029.13;5071991;28;20067;-76
2023/05/11 00:31:38;;;;;;;12.38;7.07;;;;;;;10.14;96.68;100939.91;5072453;28;20032;-75
2023/05/11 00:34:04;;;;;;;14.25;7.32;;;;;;;10.57;96.68;101018.44;5072276;28;20032;-80
2023/05/11 00:36:29;;;;;;;13.10;6.97;;;;;;;10.54;96.62;101022.59;5072014;28;20032;-76
2023/05/11 00:38:55;;;;;;;11.43;7.82;;;;;;;10.54;97.06;101025.16;5072249;28;20468;-76
2023/05/11 00:41:20;;;;;;;11.07;7.18;;;;;;;10.51;96.87;101024.19;5071604;28;20115;-76
2023/05/11 00:43:46;;;;;;;12.82;7.25;;;;;;;10.32;96.99;101026.72;5071326;28;20063;-76
2023/05/11 00:46:12;;;;;;;10.95;6.20;;;;;;;10.12;97.47;101008.59;5072093;28;20082;-76
2023/05/11 00:48:37;;;;;;;10.63;6.35;;;;;;;10.26;98.01;101023.84;5053772;28;20028;-75
2023/05/11 00:51:04;;;;;;;10.98;6.68;;;;;;;10.18;98.21;101014.06;5071951;28;20028;-77
2023/05/11 00:53:30;;;;;;;14.90;7.38;;;;;;;10.35;98.21;101026.84;5071820;28;20060;-76
2023/05/11 00:55:56;;;;;;;9.43;6.18;;;;;;;10.23;96.43;101021.13;5035691;28;20071;-75
2023/05/11 00:58:21;;;;;;;11.40;5.95;;;;;;;9.96;95.93;101032.78;5071699;28;20082;-75
2023/05/11 01:00:47;;;;;;;10.80;6.53;;;;;;;9.87;96.94;101027.19;5071360;28;20025;-75
2023/05/11 01:03:14;;;;;;;11.35;6.40;;;;;;;9.55;98.38;101034.19;5071510;28;20398;-79
2023/05/11 01:06:09;;;;;;;13.48;6.40;;;;;;;9.19;99.88;101037.53;5071435;28;20071;-74
2023/05/11 01:08:55;;;;;;;10.90;6.60;;;;;;;9.15;100.00;101030.47;5071197;28;20048;-75
2023/05/11 01:11:40;;;;;;;10.93;6.85;;;;;;;8.89;100.00;101031.69;5071325;28;20115;-76
2023/05/11 01:14:12;;;;;;;9.63;6.55;;;;;;;8.85;100.00;101032.34;5071400;28;20637;-75
2023/05/11 01:16:43;;;;;;;9.57;6.20;;;;;;;8.88;100.00;101028.25;5071222;28;20475;-74
2023/05/11 01:22:51;;;;;;;11.50;6.38;;;;;;;8.52;100.00;101046.06;5439913;23;20495;-75
2023/05/11 01:25:24;;;;;;;11.82;6.40;;;;;;;8.37;100.00;101040.03;5071075;28;20051;-75
2023/05/11 01:28:22;;;;;;;9.48;5.95;;;;;;;8.11;100.00;101034.31;5071332;28;20387;-76
2023/05/11 01:30:52;;;;;;;11.45;6.07;;;;;;;7.87;100.00;101002.97;5071191;28;20028;-75
2023/05/11 01:33:29;;;;;;;11.00;6.75;;;;;;;8.10;100.00;101018.00;5071176;28;20044;-75
2023/05/11 01:36:02;;;;;;;9.93;6.80;;;;;;;8.25;100.00;101029.97;5071188;28;20035;-75
2023/05/11 01:38:33;;;;;;;8.25;6.20;;;;;;;8.22;100.00;101024.63;5071023;28;20043;-74
2023/05/11 01:40:59;;;;;;;9.13;6.43;;;;;;;8.27;100.00;101023.19;5071119;28;20044;-75
2023/05/11 01:43:29;;;;;;;11.85;6.40;;;;;;;8.21;100.00;101021.19;5070962;28;20036;-75
2023/05/11 01:45:58;;;;;;;14.70;6.82;;;;;;;7.98;100.00;100971.03;5070686;28;20032;-75
2023/05/11 01:48:26;;;;;;;;;;;;;;;8.26;100.00;101024.91;5071506;28;20036;-75
2023/05/11 01:50:56;;;;;;;8.90;6.28;;;;;;;8.04;100.00;100996.22;5070774;28;19908;-76
2023/05/11 01:53:23;;;;;;;12.20;6.50;;;;;;;8.17;100.00;101001.22;5070816;28;20029;-75
2023/05/11 01:55:50;;;;;;;10.38;6.43;;;;;;;8.33;100.00;101022.66;5071089;28;20028;-75
2023/05/11 01:58:16;;;;;;;11.77;6.80;;;;;;;8.20;100.00;101029.69;5090951;28;20603;-74
2023/05/11 02:00:44;;;;;;;12.93;6.68;;;;;;;8.00;100.00;101028.59;5090742;28;20089;-75
2023/05/11 02:03:10;;;;;;;10.77;7.30;;;;;;;8.00;100.00;101028.59;5055071;28;20139;-75
2023/05/11 02:05:38;;;;;;;14.55;7.57;;;;;;;7.91;100.00;101033.19;5090822;28;20543;-75
2023/05/11 02:08:05;;;;;;;10.32;6.70;;;;;;;7.67;100.00;101015.56;5090843;28;20032;-76
2023/05/11 02:10:32;;;;;;;11.27;7.88;;;;;;;6.76;100.00;100867.41;5090815;28;20036;-75
2023/05/11 02:12:58;;;;;;;12.48;7.22;;;;;;;7.55;100.00;101028.63;5090620;28;20047;-75
2023/05/11 02:15:24;;;;;;;11.65;7.60;;;;;;;7.36;100.00;101029.19;5072450;28;20111;-75
2023/05/11 02:17:51;;;;;;;15.90;7.40;;;;;;;6.94;100.00;100988.25;5090848;28;20097;-75
2023/05/11 02:20:18;;;;;;;16.77;7.55;;;;;;;6.93;100.00;101036.94;5088181;28;20114;-75
2023/05/11 02:22:45;;;;;;;12.85;7.18;;;;;;;7.12;100.00;101029.50;5052122;28;20059;-75
2023/05/11 02:25:12;;;;;;;20.98;7.90;;;;;;;7.20;100.00;101029.09;5070219;28;20493;-75
2023/05/11 02:27:38;;;;;;;14.73;7.10;;;;;;;7.21;100.00;101024.03;5068778;28;20031;-74
2023/05/11 02:30:07;;;;;;;13.20;7.00;;;;;;;6.97;100.00;100964.44;5052404;28;20032;-75
2023/05/11 02:32:37;;;;;;;11.32;6.80;;;;;;;7.33;100.00;101035.84;5070203;28;20546;-75
2023/05/11 02:38:32;;;;;;;10.25;5.95;;;;;;;6.98;100.00;100945.69;5127988;23;20114;-75
2023/05/11 02:41:08;;;;;;;11.32;7.05;;;;;;;7.44;100.00;101032.25;5050467;28;20107;-74
2023/05/11 02:43:39;;;;;;;12.73;6.55;;;;;;;7.38;100.00;101039.59;5050459;28;20025;-75
2023/05/11 02:46:10;;;;;;;12.95;6.55;;;;;;;7.41;100.00;101032.97;5050351;28;20029;-76
2023/05/11 02:48:43;;;;;;;12.35;6.70;;;;;;;7.39;100.00;101036.19;4996725;28;20474;-75
2023/05/11 02:51:11;;;;;;;11.02;6.63;;;;;;;7.36;100.00;101028.31;5030242;28;20029;-76
2023/05/11 02:53:40;;;;;;;11.52;6.22;;;;;;;7.18;100.00;101005.91;5030533;28;20120;-74
2023/05/11 02:56:06;;;;;;;9.77;5.97;;;;;;;7.31;100.00;101024.59;5030466;28;20025;-74
2023/05/11 03:01:54;;;;;;;9.85;6.53;;;;;;;7.38;100.00;101035.31;5136494;23;20102;-75
2023/05/11 03:04:19;;;;;;;12.48;6.70;;;;;;;7.35;100.00;101036.81;5049514;28;20045;-74
2023/05/11 03:06:45;;;;;;;10.07;6.63;;;;;;;7.36;100.00;101034.34;5053156;28;20407;-74
2023/05/11 03:09:10;;;;;;;16.33;6.60;;;;;;;7.35;100.00;101044.53;5053235;28;20122;-75
2023/05/11 03:11:36;;;;;;;13.95;6.55;;;;;;;6.95;100.00;100941.25;5053791;28;20032;-77
2023/05/11 03:14:02;;;;;;;9.70;6.38;;;;;;;7.70;100.00;101038.91;5053795;28;20032;-77
2023/05/11 03:16:28;;;;;;;12.93;6.72;;;;;;;7.85;100.00;101037.97;5053599;28;20476;-75
2023/05/11 03:18:55;;;;;;;11.25;6.40;;;;;;;7.89;100.00;101027.09;5066411;28;20028;-75
2023/05/11 03:21:22;;;;;;;11.05;6.35;;;;;;;7.87;100.00;101027.00;5073472;28;20031;-75
2023/05/11 03:23:48;;;;;;;11.80;6.65;;;;;;;7.71;100.00;101021.78;5073166;28;20052;-73
2023/05/11 03:26:17;;;;;;;12.07;6.78;;;;;;;7.74;100.00;101007.41;5073323;28;20040;-74
2023/05/11 03:28:45;;;;;;;9.95;6.90;;;;;;;7.83;100.00;101035.34;5073304;28;20410;-75
2023/05/11 03:31:10;;;;;;;10.82;6.40;;;;;;;7.79;100.00;101046.25;5063683;28;20036;-74
2023/05/11 03:33:36;;;;;;;15.18;6.47;;;;;;;7.46;100.00;100984.38;5052689;28;20025;-75
2023/05/11 03:36:03;;;;;;;13.13;6.40;;;;;;;7.80;100.00;101041.97;5053121;28;20020;-75
2023/05/11 03:38:29;;;;;;;14.43;6.82;;;;;;;7.81;100.00;101049.78;5053177;28;20033;-74
2023/05/11 03:40:57;;;;;;;11.93;6.95;;;;;;;7.84;100.00;101044.81;5053135;28;20051;-74
2023/05/11 03:43:26;;;;;;;14.73;7.22;;;;;;;7.84;100.00;101039.69;5052828;28;20025;-75
2023/05/11 03:45:54;;;;;;;10.88;5.93;;;;;;;7.68;100.00;101001.06;5035743;28;20021;-74
2023/05/11 03:48:20;;;;;;;11.70;6.07;;;;;;;7.96;100.00;101048.88;5053001;28;20040;-75
2023/05/11 03:50:46;;;;;;;12.52;6.70;;;;;;;7.97;100.00;101050.66;5053233;28;20037;-75
2023/05/11 03:53:12;;;;;;;14.93;7.30;;;;;;;7.97;100.00;101055.81;5052617;28;20513;-75
2023/05/11 03:55:38;;;;;;;11.65;6.75;;;;;;;7.97;100.00;101060.94;5052687;28;20025;-75
2023/05/11 03:58:09;;;;;;;12.88;6.82;;;;;;;7.85;100.00;101049.16;5052771;28;20021;-79
2023/05/11 04:00:39;;;;;;;19.50;7.47;;;;;;;7.96;100.00;101061.75;5052840;28;20053;-75
2023/05/11 04:03:08;;;;;;;14.85;7.18;;;;;;;7.93;100.00;101042.75;5052602;28;20031;-75
2023/05/11 04:05:33;;;;;;;15.30;7.38;;;;;;;7.68;100.00;101019.03;5052493;28;20108;-74
2023/05/11 04:07:59;;;;;;;18.40;8.18;;;;;;;7.94;100.00;101053.94;5052820;28;20112;-72
2023/05/11 04:10:25;;;;;;;16.83;7.75;;;;;;;7.93;100.00;101055.63;5052730;28;20028;-73
2023/05/11 04:12:51;;;;;;;12.32;6.88;;;;;;;8.00;100.00;101061.09;5047128;28;20516;-74
2023/05/11 04:15:17;;;;;;;11.52;6.72;;;;;;;8.00;100.00;101056.88;5042813;28;20029;-75
2023/05/11 04:17:42;;;;;;;19.27;6.90;;;;;;;7.80;100.00;101017.19;5051272;28;20112;-73
2023/05/11 04:20:08;;;;;;;13.45;6.70;;;;;;;8.05;100.00;101055.44;5051308;28;20483;-78
2023/05/11 04:22:33;;;;;;;16.58;7.57;;;;;;;7.96;100.00;101034.34;5033183;28;20030;-75
2023/05/11 04:24:59;;;;;;;10.82;7.10;;;;;;;8.19;100.00;101065.63;5035925;28;20033;-75
2023/05/11 04:27:24;;;;;;;10.48;6.63;;;;;;;7.68;100.00;100971.09;5032234;28;20029;-74
2023/05/11 04:29:50;;;;;;;13.90;6.97;;;;;;;8.15;100.00;101056.84;5032443;28;20030;-75
2023/05/11 04:32:15;;;;;;;16.00;6.40;;;;;;;8.19;100.00;101058.78;5032492;28;20021;-75
2023/05/11 04:34:41;;;;;;;15.55;6.90;;;;;;;8.27;100.00;101072.06;5031836;28;20033;-75
2023/05/11 04:37:06;;;;;;;9.35;6.05;;;;;;;8.25;100.00;101065.97;5031991;28;20028;-74
2023/05/11 04:39:33;;;;;;;15.82;7.22;;;;;;;8.10;100.00;101066.88;5031531;28;20112;-74
2023/05/11 04:41:59;;;;;;;13.82;6.50;;;;;;;8.04;100.00;101050.22;5032242;28;20033;-75
2023/05/11 04:44:25;;;;;;;11.52;6.78;;;;;;;8.17;100.00;101056.94;5032183;28;20026;-75
2023/05/11 04:46:54;;;;;;;11.15;6.57;;;;;;;8.18;100.00;101072.44;5037822;28;20033;-75
2023/05/11 04:49:20;;;;;;;14.20;7.50;;;;;;;8.25;100.00;101078.84;5051690;28;20039;-74
2023/05/11 04:51:46;;;;;;;11.05;6.88;;;;;;;8.36;100.00;101079.41;5051699;28;20025;-75
2023/05/11 04:54:11;;;;;;;14.43;6.88;;;;;;;8.45;100.00;101064.50;5051619;28;20095;-75
2023/05/11 04:56:39;;;;;;;12.35;6.78;;;;;;;8.22;100.00;101002.38;5051574;28;20033;-79
2023/05/11 04:59:06;;;;;;;10.45;6.68;;;;;;;8.56;100.00;101058.28;5053057;28;20120;-72
2023/05/11 05:01:32;;;;;;;13.52;6.72;;;;;;;8.71;100.00;101076.25;5051146;28;20087;-73
2023/05/11 05:03:57;;;;;;;11.55;6.28;;;;;;;8.70;100.00;101081.31;5051050;28;20056;-71
2023/05/11 05:06:22;;;;;;;11.23;6.32;;;;;;;8.75;100.00;101079.88;5050763;28;20495;-74
2023/05/11 05:08:48;;;;;;;12.15;6.32;;;;;;;8.47;100.00;101031.16;5051113;28;20021;-73
2023/05/11 05:11:13;;;;;;;9.30;5.75;;;;;;;8.95;100.00;101092.91;5050734;28;20021;-74
2023/05/11 05:13:40;;;;;;;14.93;5.82;;;;;;;8.83;100.00;101070.00;5050888;28;20451;-74
2023/05/11 05:16:05;;;;;;;16.80;6.57;;;;;;;8.57;100.00;101000.88;5050034;28;20031;-76
2023/05/11 05:18:31;;;;;;;10.93;6.20;;;;;;;8.59;100.00;100985.50;5030974;28;20040;-75
2023/05/11 05:20:56;;;;;;;11.57;5.38;;;;;;;9.34;100.00;101078.66;5049301;28;20028;-74
2023/05/11 05:23:22;;;;;;;9.65;5.35;;;;;;;9.54;100.00;101079.72;5050326;28;20025;-74
2023/05/11 05:25:47;;;;;;;11.38;5.85;;;;;;;9.72;100.00;101073.72;5042202;28;20100;-73
2023/05/11 05:28:12;;;;;;;10.32;4.90;;;;;;;9.78;100.00;101063.72;5048475;28;20041;-76
2023/05/11 05:30:38;;;;;;;8.88;4.63;;;;;;;9.96;100.00;101068.00;5050845;28;20051;-73
2023/05/11 05:33:03;;;;;;;11.15;5.22;;;;;;;9.69;100.00;101002.28;5031166;28;20499;-72
2023/05/11 05:35:29;;;;;;;7.95;4.63;;;;;;;10.31;100.00;101068.81;5050672;28;20096;-73
2023/05/11 05:37:55;;;;;;;9.93;4.55;;;;;;;10.24;100.00;101035.78;5050416;28;20035;-73
2023/05/11 05:40:20;;;;;;;11.23;4.30;;;;;;;10.57;100.00;101077.81;5050581;28;20115;-74
2023/05/11 05:42:45;;;;;;;10.40;4.20;;;;;;;10.51;100.00;101075.81;5050175;28;20028;-73
2023/05/11 05:45:11;;;;;;;13.60;4.28;;;;;;;10.54;100.00;101071.63;5050149;28;20059;-74
2023/05/11 05:47:36;;;;;;;15.00;5.13;;;;;;;10.68;100.00;101078.34;5014430;28;20094;-73
2023/05/11 05:50:02;;;;;;;6.28;4.20;;;;;;;10.80;100.00;101076.31;5050659;28;20025;-74
2023/05/11 05:52:27;;;;;;;7.43;3.92;;;;;;;10.95;100.00;101077.81;5050426;28;20027;-77
2023/05/11 05:54:53;;;;;;;20.98;4.10;;;;;;;10.95;100.00;101075.22;5050165;28;20050;-77
2023/05/11 05:57:19;;;;;;;10.85;4.13;;;;;;;10.92;100.00;101067.34;5050341;28;20028;-75
2023/05/11 05:59:44;;;;;;;11.35;4.30;;;;;;;10.97;100.00;101077.06;5050315;28;20044;-72
2023/05/11 06:02:11;;;;;;;12.43;4.00;;;;;;;11.11;100.00;101075.09;5031648;28;20037;-75
2023/05/11 06:04:37;;;;;;;10.07;4.68;;;;;;;11.22;100.00;101072.13;5050075;28;20016;-73
2023/05/11 06:07:02;;;;;;;8.70;4.07;;;;;;;11.23;100.00;101066.13;5049605;28;20033;-74
2023/05/11 06:09:28;;;;;;;10.80;3.90;;;;;;;11.24;100.00;101065.28;5048974;28;20037;-74
2023/05/11 06:11:53;;;;;;;9.68;3.67;;;;;;;11.51;100.00;101080.25;5047973;28;20037;-73
2023/05/11 06:14:21;;;;;;;7.22;3.75;;;;;;;11.51;100.00;101080.25;5049685;28;20036;-73
2023/05/11 06:16:46;;;;;;;10.48;3.85;;;;;;;11.60;100.00;101070.28;5049125;28;20494;-74
2023/05/11 06:19:12;;;;;;;8.88;3.30;;;;;;;11.83;100.00;101076.44;5032000;28;20039;-76
2023/05/11 06:21:40;;;;;;;8.20;3.55;;;;;;;11.90;99.96;101065.53;5014483;28;20041;-74
2023/05/11 06:24:06;;;;;;;8.18;3.35;;;;;;;12.16;98.25;101089.00;5049963;28;20112;-74
2023/05/11 06:26:31;;;;;;;10.55;3.75;;;;;;;12.16;97.24;101070.88;5050139;28;20116;-73
2023/05/11 06:28:56;;;;;;;9.38;3.70;;;;;;;12.33;96.73;101075.88;5049678;28;20017;-73
2023/05/11 06:31:23;;;;;;;5.78;2.78;;;;;;;12.26;93.85;101085.09;5049288;28;20024;-75
2023/05/11 06:33:48;;;;;;;6.22;2.72;;;;;;;11.98;93.88;101030.50;5049914;28;20096;-73
2023/05/11 06:36:14;;;;;;;7.78;2.78;;;;;;;12.30;91.34;101074.94;5049795;28;20104;-73
2023/05/11 06:38:39;;;;;;;8.43;3.08;;;;;;;12.41;93.40;101088.31;5049553;28;20027;-74
2023/05/11 06:41:06;;;;;;;10.07;3.15;;;;;;;12.53;93.34;101079.25;5034235;28;20086;-74
2023/05/11 06:43:32;;;;;;;5.45;3.10;;;;;;;12.64;92.60;101071.91;5054078;28;20037;-75
2023/05/11 06:45:57;;;;;;;8.48;3.10;;;;;;;12.69;92.24;101071.22;5053041;28;20029;-76
2023/05/11 06:48:24;;;;;;;7.38;3.45;;;;;;;12.62;92.71;101056.28;5052395;28;20108;-76
2023/05/11 06:50:50;;;;;;;6.38;3.20;;;;;;;12.70;93.25;101052.28;5051529;28;20028;-74
2023/05/11 06:53:16;;;;;;;5.45;2.92;;;;;;;12.83;90.81;101047.56;5033961;28;20088;-76
2023/05/11 06:55:42;;;;;;;5.95;3.13;;;;;;;12.82;89.26;101049.25;5051729;28;20036;-74
2023/05/11 06:58:08;;;;;;;6.75;3.20;;;;;;;12.87;89.44;101054.59;5051450;28;20032;-74
2023/05/11 07:00:33;;;;;;;7.00;3.22;;;;;;;13.04;89.51;101071.66;5050902;28;20487;-75
2023/05/11 07:02:59;;;;;;;5.82;3.00;;;;;;;13.14;91.05;101067.69;5051640;28;20025;-74
2023/05/11 07:05:24;;;;;;;9.07;2.85;;;;;;;13.17;87.99;101070.41;5051310;28;20048;-75
2023/05/11 07:07:50;;;;;;;7.57;3.15;;;;;;;13.23;89.08;101069.72;5051079;28;20486;-76
2023/05/11 07:10:16;;;;;;;5.38;2.72;;;;;;;13.23;87.41;101064.53;5015616;28;20072;-75
2023/05/11 07:12:41;;;;;;;7.30;3.30;;;;;;;13.23;86.80;101077.50;5052461;28;20052;-75
2023/05/11 07:15:07;;;;;;;9.85;2.78;;;;;;;13.22;86.88;101076.63;5017277;28;20056;-76
2023/05/11 07:17:33;;;;;;;5.28;2.60;;;;;;;13.20;86.46;101067.91;5052196;28;20067;-73
2023/05/11 07:19:58;;;;;;;8.50;2.92;;;;;;;13.14;87.10;101083.25;5050697;28;20112;-73
2023/05/11 07:22:24;;;;;;;5.55;2.58;;;;;;;13.23;85.98;101074.91;5052000;28;20398;-73
2023/05/11 07:24:49;;;;;;;4.57;2.58;;;;;;;13.39;83.02;101079.84;5052675;28;20029;-75
2023/05/11 07:27:14;;;;;;;7.93;2.47;;;;;;;13.04;82.22;101078.56;5053121;28;20578;-71
2023/05/11 07:29:40;;;;;;;4.05;2.30;;;;;;;12.34;81.29;100995.66;5051331;28;20020;-79
2023/05/11 07:32:06;;;;;;;5.45;2.67;;;;;;;12.87;85.61;101083.09;5049688;28;20465;-74
2023/05/11 07:34:32;;;;;;;3.45;2.08;;;;;;;13.17;86.38;101085.06;5051095;28;20029;-74
2023/05/11 07:36:57;;;;;;;3.25;1.98;;;;;;;13.50;85.10;101051.69;5050589;28;20112;-75
2023/05/11 07:39:22;;;;;;;6.10;2.47;;;;;;;13.29;83.58;101069.94;5051338;28;20031;-76
2023/05/11 07:41:48;;;;;;;4.47;2.30;;;;;;;13.43;83.66;101068.78;5052191;28;20029;-77
2023/05/11 07:44:14;;;;;;;8.32;2.80;;;;;;;13.50;81.30;101088.00;5052656;28;20033;-76
2023/05/11 07:46:39;;;;;;;3.65;2.00;;;;;;;13.78;83.89;101067.31;5052738;28;20044;-81
2023/05/11 07:49:05;;;;;;;6.63;2.05;;;;;;;13.82;80.55;101058.78;5053307;28;20030;-83
2023/05/11 07:51:31;;;;;;;5.28;1.92;;;;;;;13.99;80.32;101067.13;5052993;28;20060;-78
2023/05/11 07:53:56;;;;;;;4.32;2.13;;;;;;;14.12;78.80;101048.53;5053233;28;20397;-76
2023/05/11 07:56:21;;;;;;;4.32;1.95;;;;;;;14.34;77.78;101062.19;5001117;28;20048;-76
2023/05/11 07:58:47;;;;;;;6.22;1.75;;;;;;;14.14;78.31;100983.66;5052566;28;20475;-77
2023/05/11 08:01:12;;;;;;;7.07;1.95;;;;;;;14.66;76.88;101054.53;5052521;28;20049;-76
2023/05/11 08:03:38;;;;;;;2.88;1.60;;;;;;;14.61;74.17;101051.75;5052964;28;20021;-76
2023/05/11 08:06:04;;;;;;;6.40;2.20;;;;;;;14.68;74.01;101052.88;5052845;28;20063;-76
2023/05/11 08:08:29;;;;;;;5.95;2.22;;;;;;;14.53;72.56;100999.56;5052728;28;20021;-82
2023/05/11 08:10:55;;;;;;;5.50;2.42;;;;;;;14.88;72.02;101049.09;5052660;28;20835;-77
2023/05/11 08:13:21;;;;;;;4.53;1.90;;;;;;;14.92;71.75;101052.69;5052546;28;20044;-77
2023/05/11 08:15:47;;;;;;;6.57;1.95;;;;;;;14.79;70.85;101063.56;5052689;28;20454;-77
2023/05/11 08:18:12;;;;;;;7.35;1.88;;;;;;;14.81;73.03;101051.50;5051814;28;20032;-78
2023/05/11 08:20:40;;;;;;;7.32;2.17;;;;;;;14.71;75.35;100990.56;5043602;28;20047;-75
2023/05/11 08:23:06;;;;;;;5.22;2.20;;;;;;;14.70;74.01;100976.69;5055624;28;20025;-73
2023/05/11 08:25:33;;;;;;;4.85;2.00;;;;;;;15.26;74.23;101048.41;5029506;28;20095;-76
2023/05/11 08:27:59;;;;;;;5.13;2.03;;;;;;;15.35;72.95;101059.06;5050091;28;20025;-74
2023/05/11 08:30:24;;;;;;;3.88;1.55;;;;;;;15.34;69.52;101043.44;5051602;28;20040;-75
2023/05/11 08:32:49;;;;;;;6.28;1.83;;;;;;;15.36;68.33;101044.34;5051677;28;20112;-73
2023/05/11 08:35:15;;;;;;;5.30;2.53;;;;;;;15.25;70.75;101033.63;5051600;28;20151;-77
2023/05/11 08:37:40;;;;;;;2.45;1.45;;;;;;;15.47;68.95;101031.63;5051530;28;20021;-72
2023/05/11 08:40:07;;;;;;;4.38;1.63;;;;;;;15.23;69.95;101043.13;5051774;28;20017;-71
2023/05/11 08:42:35;;;;;;;4.35;2.42;;;;;;;15.03;69.03;101053.84;5050742;28;20037;-73
2023/05/11 08:45:02;;;;;;;7.30;2.33;;;;;;;15.09;70.15;101039.25;5033177;28;20399;-75
2023/05/11 08:47:28;;;;;;;5.78;2.08;;;;;;;15.23;70.00;101043.13;5051064;28;20723;-73
2023/05/11 08:49:54;;;;;;;5.80;2.03;;;;;;;15.31;71.85;101039.00;5051443;28;20037;-76
2023/05/11 08:52:19;;;;;;;4.03;2.05;;;;;;;15.28;69.03;101025.94;5051140;28;20026;-72
2023/05/11 08:54:46;;;;;;;3.08;1.63;;;;;;;15.49;68.72;101046.41;5051134;28;20025;-74
2023/05/11 08:57:13;;;;;;;6.05;1.80;;;;;;;15.46;68.29;101035.06;5051058;28;20028;-73
2023/05/11 08:59:41;;;;;;;5.00;1.88;;;;;;;15.41;67.31;101018.44;5050753;28;20029;-72
2023/05/11 09:02:13;;;;;;;4.70;1.92;;;;;;;15.48;68.56;101046.38;5051506;28;20067;-74
2023/05/11 09:04:38;;;;;;;6.22;2.00;;;;;;;15.48;69.66;101015.16;5050504;28;20021;-73
2023/05/11 09:07:04;;;;;;;3.97;1.90;;;;;;;15.85;69.26;101030.00;5051087;28;20036;-74
2023/05/11 09:09:30;;;;;;;4.10;1.58;;;;;;;15.36;66.54;100967.19;5050502;28;20021;-76
2023/05/11 09:11:55;;;;;;;4.85;1.70;;;;;;;15.73;67.24;101027.06;5049838;28;20039;-74
2023/05/11 09:14:21;;;;;;;3.00;1.65;;;;;;;15.81;66.26;101019.44;5050353;28;20078;-76
2023/05/11 09:16:47;;;;;;;8.73;1.70;;;;;;;15.81;64.46;101003.81;5060928;28;20040;-73
2023/05/11 09:19:18;;;;;;;4.80;1.95;;;;;;;15.88;64.32;100997.09;5032886;28;20017;-76
2023/05/11 09:21:44;;;;;;;4.88;2.13;;;;;;;15.82;65.18;100984.78;5046784;28;20465;-75
2023/05/11 09:24:12;;;;;;;4.50;1.70;;;;;;;16.17;64.68;101014.25;5032806;28;20029;-73
2023/05/11 09:26:38;;;;;;;5.53;1.70;;;;;;;16.27;64.72;100991.88;5049973;28;20033;-75
2023/05/11 09:29:04;;;;;;;5.40;2.30;;;;;;;16.42;63.93;100990.47;5033198;28;20041;-73
2023/05/11 09:31:41;;;;;;;3.03;1.60;;;;;;;16.63;65.15;100998.72;5050800;28;20037;-73
2023/05/11 09:34:21;;;;;;;2.63;1.30;;;;;;;15.96;62.64;100986.00;5049868;28;20078;-74
2023/05/11 09:36:50;;;;;;;;;;;;;;;15.75;64.21;101003.66;5048347;28;20032;-74
2023/05/11 09:39:19;;;;;;;4.13;1.50;;;;;;;15.78;61.33;100962.97;5044398;28;19921;-74
2023/05/11 09:41:45;;;;;;;3.50;1.85;;;;;;;16.21;64.08;100981.31;5031197;28;20555;-74
2023/05/11 09:44:14;;;;;;;3.05;1.48;;;;;;;16.36;60.53;100977.28;5030614;28;20128;-76
2023/05/11 09:46:42;;;;;;;3.00;1.45;;;;;;;16.42;62.96;100982.63;5031071;28;20107;-74
2023/05/11 09:49:08;;;;;;;6.15;1.73;;;;;;;16.28;63.17;100970.19;5030587;28;20040;-76
2023/05/11 09:51:39;;;;;;;2.97;1.67;;;;;;;16.34;62.52;100969.47;5030661;28;20025;-76
2023/05/11 09:54:19;;;;;;;4.35;1.90;;;;;;;16.37;64.02;100964.28;5030742;28;20033;-77
2023/05/11 09:56:49;;;;;;;2.85;1.73;;;;;;;16.56;62.90;100954.25;5030673;28;20033;-75
2023/05/11 09:59:34;;;;;;;3.28;1.70;;;;;;;16.61;63.45;100971.75;5030595;28;20029;-76
2023/05/11 10:02:18;;;;;;;4.82;1.80;;;;;;;16.18;63.13;100843.19;5030325;28;20049;-75
2023/05/11 10:04:43;;;;;;;4.18;2.03;;;;;;;16.82;61.88;100954.75;5050694;28;20045;-76
2023/05/11 10:07:09;;;;;;;4.15;1.73;;;;;;;16.77;61.79;100914.69;5050439;28;20032;-75
2023/05/11 10:09:37;;;;;;;3.72;2.00;;;;;;;17.08;60.71;100967.44;5050370;28;20083;-77
2023/05/11 10:12:04;;;;;;;5.65;1.75;;;;;;;17.17;62.16;100956.31;5050292;28;20024;-76
2023/05/11 10:14:32;;;;;;;5.57;1.90;;;;;;;17.46;62.78;100946.38;5050058;28;20121;-76
2023/05/11 10:17:00;;;;;;;9.02;1.88;;;;;;;17.53;60.09;100900.34;5050075;28;20534;-74
2023/05/11 10:19:26;;;;;;;4.63;1.88;;;;;;;17.23;57.33;100879.00;5050642;28;20029;-75
2023/05/11 10:21:52;;;;;;;3.60;2.05;;;;;;;17.65;61.06;100955.34;5050583;28;20031;-75
2023/05/11 10:24:18;;;;;;;5.65;1.90;;;;;;;17.49;64.14;100928.13;5050281;28;20037;-75
2023/05/11 10:26:43;;;;;;;3.92;1.65;;;;;;;17.85;58.52;100947.81;5050251;28;20104;-75
2023/05/11 10:29:10;;;;;;;5.97;1.60;;;;;;;17.88;58.55;100949.59;5050260;28;20498;-74
2023/05/11 10:31:36;;;;;;;2.85;1.67;;;;;;;18.06;59.22;100935.97;5050628;28;20028;-75
2023/05/11 10:34:03;;;;;;;4.40;1.42;;;;;;;18.17;61.95;100939.59;5050109;28;20725;-74
2023/05/11 10:36:29;;;;;;;3.42;1.85;;;;;;;18.01;57.52;100922.84;5050121;28;20090;-76
2023/05/11 10:38:54;;;;;;;11.50;1.80;;;;;;;18.28;59.89;100937.13;5050401;28;20033;-75
2023/05/11 10:41:22;;;;;;;6.47;1.80;;;;;;;18.33;56.76;100939.78;5014665;28;20464;-75
2023/05/11 10:43:54;;;;;;;4.18;1.58;;;;;;;18.58;55.86;100936.63;5050024;28;20512;-75
2023/05/11 10:46:49;;;;;;;3.45;1.52;;;;;;;18.52;55.90;100933.06;5050185;28;20033;-75
2023/05/11 10:49:22;;;;;;;5.53;1.70;;;;;;;18.34;56.05;100926.72;4988323;28;20043;-74
2023/05/11 10:51:53;;;;;;;4.25;1.60;;;;;;;18.73;56.48;100921.97;4988295;28;20047;-76
2023/05/11 10:54:45;;;;;;;3.42;1.60;;;;;;;19.00;54.19;100913.53;4988474;28;20559;-75
2023/05/11 10:57:10;;;;;;;7.00;2.38;;;;;;;18.90;55.14;100915.19;4988196;28;20066;-75
2023/05/11 11:00:08;;;;;;;2.92;1.83;;;;;;;18.79;54.68;100922.03;4988312;28;20081;-74
2023/05/11 11:02:34;;;;;;;6.13;1.63;;;;;;;18.45;54.08;100898.09;4988389;28;20058;-74
2023/05/11 11:05:04;;;;;;;2.85;1.88;;;;;;;18.69;56.27;100912.31;4988462;28;20081;-74
2023/05/11 11:07:30;;;;;;;;;;;;;;;19.09;56.66;100907.53;4988677;28;20469;-74
2023/05/11 11:10:03;;;;;;;3.92;1.65;;;;;;;19.38;53.33;100893.78;4987842;28;19953;-74
2023/05/11 11:12:33;;;;;;;4.68;1.58;;;;;;;19.62;52.21;100903.53;4988111;28;20046;-75
2023/05/11 11:15:06;;;;;;;4.82;1.40;;;;;;;19.71;50.16;100890.53;4988166;28;20117;-74
2023/05/11 11:17:33;;;;;;;6.82;1.58;;;;;;;19.81;51.90;100893.19;4988305;28;20034;-75
2023/05/11 11:20:03;;;;;;;2.38;1.40;;;;;;;19.84;51.21;100888.88;4988234;28;20043;-75
2023/05/11 11:22:34;;;;;;;;;;;;;;;19.77;51.38;100891.44;4988336;28;20042;-74
2023/05/11 11:25:06;;;;;;;4.05;1.50;;;;;;;19.47;53.44;100901.69;4988124;28;20395;-75
2023/05/11 11:27:44;;;;;;;4.28;1.50;;;;;;;19.37;52.91;100890.28;5047616;28;20029;-75
2023/05/11 11:30:19;;;;;;;3.63;1.60;;;;;;;19.44;53.35;100880.75;5053748;28;20017;-73
2023/05/11 11:32:49;;;;;;;4.28;1.67;;;;;;;19.50;54.50;100866.81;5031537;28;20418;-73